Αρχική σελίδα
METAR-TAF:

METAR-TAF

Αεροδρόμια :

Βαγδάτη, Ιράκ

γεωγραφικό πλάτος: 33-15-45N, γεωγραφικό μήκος: 44-14-04E, υψόμετρο: 35 μ

Παρών καιρός

Η αναφορά έγινε 21 λεπτά πριν, στις 05:00 UTC
Άνεμος 5 kt από
Θερμοκρασία 28°C
Υγρασία 30%
Πίεση 1011 hPa
Ορατότητα 10 χλμ και άνω
Δεν υπάρχουν νέφη με βάση κάτω από τα 1500 μ. και δεν υπάρχουν νέφη σωρειτομελανίτες.

METAR: ORBI 230500Z 32005KT CAVOK 28/09 Q1011 NOSIG

Χρόνος: 08:21 (05:21 UTC)

Πρόγνωση Καιρού

Η αναφορά έγινε 7 ώρες και 21 λεπτά πριν, στις 22:00 UTC
Η πρόγνωση ισχύει από τις 23 στις 00 UTC έως τις 23 στις 24 UTC
Άνεμος 8 kt από Β/BΔ
Ορατότητα: 6000 μ

TAF: ORBI 222200Z 2300/2324 33008KT 6000 NSC

Μετεωρολογικές αναφορές και προγνώσεις για περισσότερα από 4000 αεροδρόμια (δελτία METAR και TAF).

Οι διαθέσιμοι σταθμοί απεικονίζονται στο χάρτη με κίτρινες και κόκκινες κουκκίδες.

Μετακινήστε το ποντίκι πάνω από τις κουκκίδες για να δείτε το όνομα του σταθμού.

Στη συνέχεια, κάντε κλικ για να δείτε τις μετεωρολογικές αναφορές και τις προγνώσεις καιρού.

Για να αλλάξετε το χάρτη: κάντε κλικ στα πράσινα κουμπιά με τον μαύρο σταυρό για να ζουμάρετε, στο πράσινο κουμπί με την παύλα για να αφαιρέσετε το ζουμ ή στα πράσινα βέλη για να αντιπαραβάλλετε χάρτες.


METAR-TAF: